aviador You're here:

YSDU Decoded Metar

DUBBO in AUSTRALIA
Report Time2017-07-26 04:00:00
UTC Time2017-07-26 04:38:33
Flight Rules vfr VFR
Wind250° at 15 kt
W.Decomp.*RWY 23: 14.8 kt HW 2.6 kt RCW
RWY 29: 9.6 kt HW 11.5 kt LCW
W.Rank250° ranks 15
Current wind is above 250° avg. (9.2)
Visibility9999 m
Phenomena:N/A
Clouds:N/A
Expected CloudBase > 5,600 ft AGL from Temp-Dew spread
CeilingNone
Temp19°C (ISA +6)
Dew Point05°C (40% RH)
AAT12.5°C
QNH1020 hPa
Density Alt1,467 ft
Elevation902 ft
Report Wrong Elevation
Raw Report
YSDU 260400Z AUTO 25015KT 9999 // NCD 19/05 Q1020=

Extra information for YSDU:More info

Metar Taf Metar & Taf Last 4 Metars F.Rules Stats Wind Profile Meteogram Temp Stats Airport Information Weather charts Add Link Nearby VenuesMetar ALERT Operation Metar Decoded Social comments